Time;durP1;ratioP1;P1;durP2;ratioP2;P2;SDS_P1;SDS_P2;PMS_P1;PMS_P2;Temp;Humidity;BMP_temperature;BMP_pressure;BME280_temperature;BME280_humidity;BME280_pressure;Samples;Min_cycle;Max_cycle;Signal;HPM_P1;HPM_P2
2022/05/24 00:02:01;;;;;;;;;;;;;;;;;;12527825;28;20025;-78
2022/05/24 00:08:03;;;;;;;4.57;4.18;;;;;;;;;;12544653;28;19913;-79
2022/05/24 00:14:11;;;;;;;5.10;4.60;;;;;;;;;;12544481;28;20363;-79
2022/05/24 00:20:14;;;;;;;4.47;4.03;;;;;;;;;;12510277;28;20043;-78
2022/05/24 00:26:20;;;;;;;6.63;4.47;;;;;;;;;;12526516;28;20397;-78
2022/05/24 00:32:22;;;;;;;4.20;3.80;;;;;;;;;;12526361;28;20067;-78
2022/05/24 00:38:28;;;;;;;4.35;3.92;;;;;;;;;;12526049;28;20513;-78
2022/05/24 00:44:36;;;;;;;4.55;3.72;;;;;;;;;;12543557;28;20041;-78
2022/05/24 00:50:40;;;;;;;3.53;3.22;;;;;;;;;;12543519;28;20048;-78
2022/05/24 00:56:42;;;;;;;3.67;3.25;;;;;;;;;;12543786;28;20037;-78
2022/05/24 01:02:45;;;;;;;5.22;3.70;;;;;;;;;;12543872;28;20044;-78
2022/05/24 01:08:47;;;;;;;6.78;4.10;;;;;;;;;;12525557;28;20033;-78
2022/05/24 01:14:48;;;;;;;4.93;3.95;;;;;;;;;;12543363;28;20029;-79
2022/05/24 01:21:00;;;;;;;6.70;4.55;;;;;;;;;;12525144;28;20044;-78
2022/05/24 01:27:02;;;;;;;6.07;3.85;;;;;;;;;;12542736;28;20045;-78
2022/05/24 01:39:24;;;;;;;4.85;2.75;;;;;;;;;;12533667;28;19913;-78
2022/05/24 01:45:25;;;;;;;;;;;;;;;;;;12518145;28;20037;-78
2022/05/24 01:51:30;;;;;;;4.22;2.97;;;;;;;;;;12533331;28;19936;-78
2022/05/24 01:57:34;;;;;;;6.43;3.78;;;;;;;;;;12550784;28;20037;-78
2022/05/24 02:03:36;;;;;;;3.88;3.47;;;;;;;;;;12551485;28;20398;-78
2022/05/24 02:09:46;;;;;;;2.92;2.60;;;;;;;;;;12533781;28;20391;-78
2022/05/24 02:15:49;;;;;;;7.72;3.47;;;;;;;;;;12531958;28;20033;-78
2022/05/24 02:21:55;;;;;;;3.63;3.33;;;;;;;;;;12531806;28;20393;-78
2022/05/24 02:27:57;;;;;;;3.25;2.88;;;;;;;;;;12532422;28;20474;-78
2022/05/24 02:33:58;;;;;;;3.08;2.80;;;;;;;;;;12531920;28;20072;-78
2022/05/24 02:46:20;;;;;;;3.55;2.53;;;;;;;;;;12547160;28;20052;-78
2022/05/24 02:52:22;;;;;;;3.92;3.63;;;;;;;;;;12548296;28;20037;-78
2022/05/24 02:58:24;;;;;;;3.20;2.90;;;;;;;;;;12530454;28;20025;-78
2022/05/24 03:04:26;;;;;;;3.58;2.95;;;;;;;;;;12530278;28;20048;-78
2022/05/24 03:10:28;;;;;;;3.65;2.97;;;;;;;;;;12549101;28;20378;-78
2022/05/24 03:16:30;;;;;;;3.30;2.85;;;;;;;;;;12529377;28;20044;-78
2022/05/24 03:22:32;;;;;;;4.10;3.40;;;;;;;;;;12512804;28;20041;-78
2022/05/24 03:28:34;;;;;;;5.45;3.83;;;;;;;;;;12546516;28;20040;-78
2022/05/24 03:34:36;;;;;;;4.40;3.50;;;;;;;;;;12528898;28;20512;-78
2022/05/24 03:40:38;;;;;;;4.30;3.90;;;;;;;;;;12528586;28;20041;-78
2022/05/24 03:46:40;;;;;;;5.63;5.00;;;;;;;;;;12545636;28;20041;-78
2022/05/24 03:52:41;;;;;;;;;;;;;;;;;;12528494;28;20028;-78
2022/05/24 03:58:43;;;;;;;4.65;4.05;;;;;;;;;;12545743;28;19916;-78
2022/05/24 04:04:46;;;;;;;4.03;3.63;;;;;;;;;;12527573;28;20053;-78
2022/05/24 04:10:49;;;;;;;6.47;4.63;;;;;;;;;;12544699;28;20037;-78
2022/05/24 04:16:52;;;;;;;;;;;;;;;;;;12527060;28;20036;-78
2022/05/24 04:22:55;;;;;;;6.63;5.22;;;;;;;;;;12544071;28;19924;-78
2022/05/24 04:28:57;;;;;;;5.43;4.45;;;;;;;;;;12543808;28;20037;-78
2022/05/24 04:34:59;;;;;;;6.55;4.90;;;;;;;;;;12526314;28;20060;-78
2022/05/24 04:47:22;;;;;;;5.88;4.43;;;;;;;;;;12543375;28;20143;-78
2022/05/24 04:53:25;;;;;;;6.00;4.35;;;;;;;;;;12509224;28;20111;-79
2022/05/24 04:59:27;;;;;;;14.73;6.43;;;;;;;;;;12526233;28;20036;-79
2022/05/24 05:05:31;;;;;;;4.57;4.18;;;;;;;;;;12525465;28;20075;-79
2022/05/24 05:11:33;;;;;;;6.47;4.88;;;;;;;;;;12531994;28;20041;-79
2022/05/24 05:17:35;;;;;;;7.63;5.18;;;;;;;;;;12552365;28;20029;-78
2022/05/24 05:23:37;;;;;;;6.07;5.13;;;;;;;;;;12551805;28;20512;-79
2022/05/24 05:35:59;;;;;;;6.38;4.90;;;;;;;;;;12531301;28;20049;-80
2022/05/24 05:42:01;;;;;;;7.22;4.43;;;;;;;;;;12565181;28;20043;-80
2022/05/24 05:48:03;;;;;;;;;;;;;;;;;;12559076;28;20048;-80
2022/05/24 05:54:05;;;;;;;9.00;3.92;;;;;;;;;;12594632;28;19979;-80
2022/05/24 06:00:08;;;;;;;7.00;4.75;;;;;;;;;;12540823;28;20062;-81
2022/05/24 06:06:23;;;;;;;6.38;4.18;;;;;;;;;;12536806;28;20056;-80
2022/05/24 06:12:25;;;;;;;7.57;5.05;;;;;;;;;;12562751;28;20111;-80
2022/05/24 06:18:26;;;;;;;;;;;;;;;;;;12561167;28;20646;-80
2022/05/24 06:24:28;;;;;;;9.97;5.30;;;;;;;;;;12544578;28;19917;-80
2022/05/24 06:30:30;;;;;;;7.53;4.97;;;;;;;;;;12536416;28;20029;-80
2022/05/24 06:36:31;;;;;;;7.10;4.00;;;;;;;;;;12528917;28;20119;-80
2022/05/24 06:42:34;;;;;;;;;;;;;;;;;;12576228;28;20036;-80
2022/05/24 06:48:36;;;;;;;5.30;4.10;;;;;;;;;;12545747;28;20037;-80
2022/05/24 06:54:38;;;;;;;6.30;3.75;;;;;;;;;;12562268;28;20036;-80
2022/05/24 07:07:00;;;;;;;8.43;4.28;;;;;;;;;;12548079;28;20401;-81
2022/05/24 07:13:03;;;;;;;6.93;3.85;;;;;;;;;;12560916;28;20025;-80
2022/05/24 07:19:05;;;;;;;7.75;3.60;;;;;;;;;;12560691;28;20025;-78
2022/05/24 07:25:07;;;;;;;7.30;3.45;;;;;;;;;;12578226;28;20058;-80
2022/05/24 07:31:09;;;;;;;5.88;3.42;;;;;;;;;;12537476;28;20045;-79
2022/05/24 07:37:14;;;;;;;6.50;3.67;;;;;;;;;;12561569;28;20021;-80
2022/05/24 07:49:36;;;;;;;6.60;3.70;;;;;;;;;;12556588;28;20021;-80
2022/05/24 07:55:38;;;;;;;5.68;3.08;;;;;;;;;;12557256;28;20028;-82
2022/05/24 08:01:40;;;;;;;5.50;3.50;;;;;;;;;;12552087;28;20055;-85
2022/05/24 08:07:42;;;;;;;;;;;;;;;;;;12544224;28;20049;-82
2022/05/24 08:13:43;;;;;;;9.75;5.22;;;;;;;;;;12562275;28;19995;-82
2022/05/24 08:19:45;;;;;;;5.97;3.67;;;;;;;;;;12544936;28;20029;-80
2022/05/24 08:25:47;;;;;;;;;;;;;;;;;;12539898;28;20442;-81
2022/05/24 08:31:49;;;;;;;2.77;2.57;;;;;;;;;;12561485;28;19920;-81
2022/05/24 08:37:51;;;;;;;6.20;3.10;;;;;;;;;;12554184;28;20370;-83
2022/05/24 08:43:58;;;;;;;6.60;3.10;;;;;;;;;;12573715;28;20040;-83
2022/05/24 08:50:00;;;;;;;7.70;2.97;;;;;;;;;;12572100;28;20044;-82
2022/05/24 08:56:05;;;;;;;4.63;2.72;;;;;;;;;;12552388;28;20028;-82
2022/05/24 09:02:07;;;;;;;5.68;3.75;;;;;;;;;;12537679;28;20021;-82
2022/05/24 09:08:12;;;;;;;8.25;2.97;;;;;;;;;;12551957;28;20119;-82
2022/05/24 09:14:17;;;;;;;6.05;3.00;;;;;;;;;;12536257;28;20029;-81
2022/05/24 09:20:24;;;;;;;6.95;2.72;;;;;;;;;;12577633;28;20039;-81
2022/05/24 09:26:26;;;;;;;9.13;3.55;;;;;;;;;;12540754;28;20397;-81
2022/05/24 09:32:42;;;;;;;9.98;3.80;;;;;;;;;;12539753;28;20041;-81
2022/05/24 09:38:43;;;;;;;5.72;2.50;;;;;;;;;;12567126;28;20033;-81
2022/05/24 09:44:50;;;;;;;3.15;2.40;;;;;;;;;;12587979;28;20045;-80
2022/05/24 09:50:53;;;;;;;4.45;2.97;;;;;;;;;;12540169;28;20036;-80
2022/05/24 09:57:04;;;;;;;4.13;2.25;;;;;;;;;;12533905;28;20492;-80
2022/05/24 10:03:08;;;;;;;4.32;2.47;;;;;;;;;;12568839;28;20032;-79
2022/05/24 10:09:10;;;;;;;2.63;2.20;;;;;;;;;;12558611;28;20036;-80
2022/05/24 10:15:11;;;;;;;2.67;2.20;;;;;;;;;;12547567;28;20029;-79
2022/05/24 10:21:25;;;;;;;3.78;2.20;;;;;;;;;;12559695;28;20414;-80
2022/05/24 10:27:47;;;;;;;3.80;2.90;;;;;;;;;;12573875;28;20059;-80
2022/05/24 10:40:26;;;;;;;2.63;2.20;;;;;;;;;;12562969;28;20036;-79
2022/05/24 10:46:31;;;;;;;2.22;1.80;;;;;;;;;;12557535;28;20409;-80
2022/05/24 10:52:39;;;;;;;7.40;3.13;;;;;;;;;;12562105;28;20095;-80
2022/05/24 10:58:42;;;;;;;3.40;2.65;;;;;;;;;;12537000;28;20505;-80
2022/05/24 11:04:53;;;;;;;3.67;2.67;;;;;;;;;;12545649;28;20397;-81
2022/05/24 11:10:56;;;;;;;5.32;3.42;;;;;;;;;;12551860;28;20043;-78
2022/05/24 11:16:59;;;;;;;7.03;3.63;;;;;;;;;;12546006;28;20035;-79
2022/05/24 11:23:07;;;;;;;3.90;2.55;;;;;;;;;;12547797;28;20032;-76
2022/05/24 11:29:38;;;;;;;4.10;3.33;;;;;;;;;;12553752;28;20525;-79
2022/05/24 11:35:40;;;;;;;;;;;;;;;;;;12507058;28;20049;-77
2022/05/24 11:41:42;;;;;;;3.60;2.45;;;;;;;;;;12546479;28;20280;-77
2022/05/24 11:47:47;;;;;;;5.05;3.03;;;;;;;;;;12545077;28;20049;-77
2022/05/24 11:53:48;;;;;;;5.38;3.03;;;;;;;;;;12510628;28;20037;-78
2022/05/24 11:59:52;;;;;;;4.85;3.28;;;;;;;;;;12527205;28;20037;-82
2022/05/24 12:12:45;;;;;;;7.43;3.87;;;;;;;;;;12593786;28;20044;-82
2022/05/24 12:18:58;;;;;;;3.83;3.20;;;;;;;;;;12594965;28;20400;-82
2022/05/24 12:25:06;;;;;;;5.80;3.40;;;;;;;;;;12576299;28;20067;-78
2022/05/24 12:31:08;;;;;;;4.78;3.90;;;;;;;;;;12593673;28;20039;-78
2022/05/24 12:37:30;;;;;;;4.65;3.70;;;;;;;;;;12575954;28;20040;-78
2022/05/24 12:43:32;;;;;;;3.17;2.88;;;;;;;;;;12594194;28;20044;-77
2022/05/24 12:49:36;;;;;;;3.95;2.63;;;;;;;;;;12575476;28;20051;-78
2022/05/24 12:55:58;;;;;;;3.05;2.58;;;;;;;;;;12593904;28;20476;-78
2022/05/24 13:01:59;;;;;;;2.50;2.30;;;;;;;;;;12575515;28;20481;-78
2022/05/24 13:08:01;;;;;;;3.70;2.80;;;;;;;;;;12592424;28;20048;-77
2022/05/24 13:14:04;;;;;;;2.38;2.03;;;;;;;;;;12592555;28;20040;-78
2022/05/24 13:20:11;;;;;;;2.65;2.10;;;;;;;;;;12592172;28;20037;-78
2022/05/24 13:26:14;;;;;;;2.03;1.65;;;;;;;;;;12593114;28;20388;-78
2022/05/24 13:38:39;;;;;;;3.13;1.87;;;;;;;;;;12582533;28;20111;-78
2022/05/24 13:44:42;;;;;;;2.00;1.63;;;;;;;;;;12600490;28;20290;-78
2022/05/24 13:50:45;;;;;;;3.33;1.80;;;;;;;;;;12582138;28;20024;-78
2022/05/24 13:56:48;;;;;;;2.95;1.63;;;;;;;;;;12582209;28;20444;-78
2022/05/24 14:02:53;;;;;;;3.40;1.80;;;;;;;;;;12600601;28;20036;-78
2022/05/24 14:08:55;;;;;;;3.03;1.50;;;;;;;;;;12600306;28;20057;-77
2022/05/24 14:14:57;;;;;;;2.17;1.60;;;;;;;;;;12581692;28;20044;-78
2022/05/24 14:20:59;;;;;;;3.78;1.80;;;;;;;;;;12599027;28;20032;-78
2022/05/24 14:27:01;;;;;;;2.45;1.70;;;;;;;;;;12581107;28;20040;-78
2022/05/24 14:33:03;;;;;;;3.80;2.35;;;;;;;;;;12580535;28;20049;-78
2022/05/24 14:39:06;;;;;;;5.35;1.92;;;;;;;;;;12598285;28;20040;-78
2022/05/24 14:45:08;;;;;;;2.97;1.35;;;;;;;;;;12563539;28;20036;-78
2022/05/24 14:51:11;;;;;;;5.07;2.05;;;;;;;;;;12579649;28;20040;-78
2022/05/24 14:57:14;;;;;;;5.20;1.83;;;;;;;;;;12597786;28;20044;-78
2022/05/24 15:03:15;;;;;;;2.38;1.52;;;;;;;;;;12596923;28;20051;-78
2022/05/24 15:15:40;;;;;;;2.28;1.50;;;;;;;;;;12596224;28;20040;-78
2022/05/24 15:21:44;;;;;;;2.03;1.67;;;;;;;;;;12578305;28;20032;-78
2022/05/24 15:27:46;;;;;;;3.20;1.77;;;;;;;;;;12578072;28;20040;-78
2022/05/24 15:33:48;;;;;;;2.88;1.80;;;;;;;;;;12577341;28;20060;-78
2022/05/24 15:39:50;;;;;;;2.53;1.40;;;;;;;;;;12595634;28;20044;-78
2022/05/24 15:45:53;;;;;;;3.33;1.63;;;;;;;;;;12577643;28;20405;-78
2022/05/24 15:51:55;;;;;;;3.95;1.75;;;;;;;;;;12594792;28;20390;-77
2022/05/24 15:57:57;;;;;;;4.30;2.05;;;;;;;;;;12576495;28;20044;-77
2022/05/24 16:03:59;;;;;;;5.00;1.95;;;;;;;;;;12577286;28;20041;-77
2022/05/24 16:10:04;;;;;;;3.42;1.90;;;;;;;;;;12594089;28;20024;-77
2022/05/24 16:16:07;;;;;;;3.15;1.77;;;;;;;;;;12593651;28;20036;-77
2022/05/24 16:22:08;;;;;;;2.92;1.30;;;;;;;;;;12593605;28;20041;-77
2022/05/24 16:28:11;;;;;;;2.03;1.55;;;;;;;;;;12575501;28;20412;-77
2022/05/24 16:34:13;;;;;;;2.65;1.70;;;;;;;;;;12576108;28;20056;-77
2022/05/24 16:40:15;;;;;;;3.17;1.38;;;;;;;;;;12575760;28;20032;-78
2022/05/24 16:46:17;;;;;;;2.50;1.58;;;;;;;;;;12575798;28;20044;-79
2022/05/24 16:52:18;;;;;;;1.58;1.40;;;;;;;;;;12575643;28;20484;-79
2022/05/24 17:04:41;;;;;;;2.63;1.60;;;;;;;;;;12592893;28;20499;-78
2022/05/24 17:10:43;;;;;;;3.97;2.05;;;;;;;;;;12602545;28;20495;-78
2022/05/24 17:16:44;;;;;;;3.65;1.52;;;;;;;;;;12602963;28;20040;-77
2022/05/24 17:22:46;;;;;;;4.90;2.13;;;;;;;;;;12583844;28;20037;-78
2022/05/24 17:28:48;;;;;;;3.13;1.77;;;;;;;;;;12602466;28;20083;-77
2022/05/24 17:34:50;;;;;;;4.50;2.20;;;;;;;;;;12567243;28;20083;-78
2022/05/24 17:40:53;;;;;;;5.13;2.15;;;;;;;;;;12582623;28;20048;-78
2022/05/24 17:46:55;;;;;;;5.30;2.20;;;;;;;;;;12582715;28;20044;-78
2022/05/24 17:52:57;;;;;;;5.03;2.22;;;;;;;;;;12566398;28;20075;-77
2022/05/24 17:58:58;;;;;;;4.05;1.85;;;;;;;;;;12600004;28;20028;-78
2022/05/24 18:05:00;;;;;;;5.90;2.40;;;;;;;;;;12582280;28;20044;-78
2022/05/24 18:11:02;;;;;;;3.35;1.70;;;;;;;;;;12564961;28;20393;-77
2022/05/24 18:17:04;;;;;;;7.55;2.50;;;;;;;;;;12564419;28;20036;-77
2022/05/24 18:23:11;;;;;;;4.00;2.05;;;;;;;;;;12564544;28;20028;-77
2022/05/24 18:35:48;;;;;;;4.93;2.40;;;;;;;;;;12599058;28;20048;-77
2022/05/24 18:41:50;;;;;;;5.13;2.10;;;;;;;;;;12580960;28;20393;-77
2022/05/24 18:47:52;;;;;;;3.90;2.25;;;;;;;;;;12563627;28;20037;-77
2022/05/24 18:53:53;;;;;;;5.05;2.17;;;;;;;;;;12598319;28;20059;-77
2022/05/24 18:59:55;;;;;;;5.05;2.42;;;;;;;;;;12562934;28;20024;-77
2022/05/24 19:05:57;;;;;;;5.63;2.33;;;;;;;;;;12579753;28;20387;-78
2022/05/24 19:11:59;;;;;;;6.68;2.55;;;;;;;;;;12579309;28;20039;-79
2022/05/24 19:18:00;;;;;;;6.07;2.78;;;;;;;;;;12578471;28;20102;-78
2022/05/24 19:24:02;;;;;;;7.80;2.80;;;;;;;;;;12596144;28;20389;-79
2022/05/24 19:30:05;;;;;;;6.93;2.70;;;;;;;;;;12577954;28;20040;-79
2022/05/24 19:36:07;;;;;;;7.30;2.60;;;;;;;;;;12596578;28;20052;-79
2022/05/24 19:42:09;;;;;;;4.13;2.08;;;;;;;;;;12595696;28;20036;-78
2022/05/24 19:48:11;;;;;;;6.97;3.08;;;;;;;;;;12594982;28;20041;-79
2022/05/24 19:54:15;;;;;;;;;;;;;;;;;;12595759;28;20036;-77
2022/05/24 20:00:17;;;;;;;4.63;2.45;;;;;;;;;;12595201;28;19909;-78
2022/05/24 20:06:22;;;;;;;4.30;2.50;;;;;;;;;;12560584;28;20040;-78
2022/05/24 20:12:24;;;;;;;5.57;2.25;;;;;;;;;;12594859;28;20052;-79
2022/05/24 20:18:26;;;;;;;6.65;3.08;;;;;;;;;;12576094;28;20044;-77
2022/05/24 20:24:27;;;;;;;;;;;;;;;;;;12576987;28;20047;-77
2022/05/24 20:30:29;;;;;;;5.43;2.40;;;;;;;;;;12576049;28;19909;-78
2022/05/24 20:36:30;;;;;;;;;;;;;;;;;;12594473;28;20304;-77
2022/05/24 20:42:32;;;;;;;6.07;2.90;;;;;;;;;;12571076;28;19916;-78
2022/05/24 20:48:35;;;;;;;5.65;3.03;;;;;;;;;;12609902;28;20298;-77
2022/05/24 20:54:37;;;;;;;5.93;2.65;;;;;;;;;;12610921;28;20044;-78
2022/05/24 21:00:38;;;;;;;6.63;3.03;;;;;;;;;;12591817;28;20058;-78
2022/05/24 21:06:40;;;;;;;;;;;;;;;;;;12592065;28;20071;-78
2022/05/24 21:12:41;;;;;;;3.77;2.20;;;;;;;;;;12609979;28;19978;-78
2022/05/24 21:18:43;;;;;;;5.90;3.33;;;;;;;;;;12609458;28;20033;-78
2022/05/24 21:24:45;;;;;;;6.35;3.17;;;;;;;;;;12591434;28;20055;-78
2022/05/24 21:30:48;;;;;;;5.28;2.33;;;;;;;;;;12591291;28;20035;-78
2022/05/24 21:36:50;;;;;;;7.07;2.53;;;;;;;;;;12590952;28;20044;-78
2022/05/24 21:42:51;;;;;;;;;;;;;;;;;;12591569;28;20036;-78
2022/05/24 21:48:53;;;;;;;3.47;2.30;;;;;;;;;;12608572;28;20399;-78
2022/05/24 21:54:54;;;;;;;2.58;2.00;;;;;;;;;;12601629;28;20036;-78
2022/05/24 22:00:58;;;;;;;3.60;2.17;;;;;;;;;;12600399;28;20390;-78
2022/05/24 22:07:01;;;;;;;3.38;1.98;;;;;;;;;;12600306;28;20048;-78
2022/05/24 22:13:04;;;;;;;4.90;2.55;;;;;;;;;;12599965;28;20059;-78
2022/05/24 22:19:05;;;;;;;2.33;1.95;;;;;;;;;;12599728;28;20033;-78
2022/05/24 22:25:07;;;;;;;2.30;1.63;;;;;;;;;;12599422;28;20056;-78
2022/05/24 22:31:09;;;;;;;4.07;1.60;;;;;;;;;;12599618;28;20055;-78
2022/05/24 22:37:11;;;;;;;1.73;1.50;;;;;;;;;;12598825;28;20043;-78
2022/05/24 22:43:13;;;;;;;1.60;1.20;;;;;;;;;;12598477;28;20362;-78
2022/05/24 22:49:14;;;;;;;1.35;1.08;;;;;;;;;;12598135;28;20040;-78
2022/05/24 22:55:16;;;;;;;1.10;1.10;;;;;;;;;;12598041;28;20393;-77
2022/05/24 23:01:19;;;;;;;2.05;1.25;;;;;;;;;;12579946;28;20032;-77
2022/05/24 23:07:21;;;;;;;1.20;0.90;;;;;;;;;;12578361;28;20401;-77
2022/05/24 23:13:22;;;;;;;;;;;;;;;;;;12597462;28;20036;-78
2022/05/24 23:19:24;;;;;;;1.48;1.08;;;;;;;;;;12596573;28;20005;-78
2022/05/24 23:25:26;;;;;;;2.60;1.63;;;;;;;;;;12578472;28;20040;-77
2022/05/24 23:31:31;;;;;;;2.13;1.88;;;;;;;;;;12596027;28;20497;-77
2022/05/24 23:37:33;;;;;;;1.85;1.75;;;;;;;;;;12577874;28;20052;-77
2022/05/24 23:43:35;;;;;;;2.20;1.70;;;;;;;;;;12595567;28;20037;-77
2022/05/24 23:49:37;;;;;;;2.55;1.90;;;;;;;;;;12595398;28;20040;-77
2022/05/24 23:55:39;;;;;;;2.17;1.63;;;;;;;;;;12577088;28;20032;-78
